EmailTwitter


Surface observations / United Kingdom / EGHI (03865)

Regions: Quebec | Canada | USA | Europe | France | UK | Elsewhere
Station
Display
Info & Location for EGHI (03865) | Help decoding METAR

Weather Conditions observed on 2018/11/14 at 11:50 UTC at SOUTHAMPTON WX C, UK (EGHI)

Sky conditions: few clouds.

Temperature: 13.0 Celsius.

Dewpoint: 8.0 Celsius.

Relative Humidity: 72%

Winds: South at 19 km/h or 10 knots.

Mean Sea level Pressure: 102.20 kilopascals.

Horizontal visibility: 6.21 statute miles or 9.94 kilometers.

Coded METAR:

EGHI 141150Z 19010KT 160V220 9999 FEW022 13/08 Q1022=